Elisel — WDJ7125 — position and weather

sailwx.info

Track history (hours):
 
Tides and Currents Weather Stations Pressure Air Temp Water Temp Dewpoint Dewpoint Depression Visibility Wind Speed Wind Dir Waves Ship Positions

Elisel

Owner: Herman, Alan, Santa Rosa Valley, CA. More information available from US FCC via Universal Licensing System.

Last reported at 2017-Oct-04 18:22 UTC. Time now 2017-Oct-18 18:38 UTC.
Position N 33°28' W 117°42'.
Warning: this ship's position is 14 days out of date.

Length 20 m; draft 2.2 m.

Type: Pleasure craft. MMSI: 368003570.

Date/timePositionNaut miles runAvg speedWind from/ knotsBaromVisibWave heightAir tempDewpointWater temp
2017-Oct-04 18:22N 33°28' W 117°42'0 0.4
2017-Oct-04 18:01N 33°28' W 117°42'3 6.3
2017-Oct-04 17:30N 33°25' W 117°44'3 6.4
2017-Oct-04 17:00N 33°23' W 117°47'4 8.3
2017-Oct-04 16:30N 33°26' W 117°43'2 4.4
2017-Oct-04 16:00N 33°28' W 117°42'0 0.0
2017-Oct-04 15:24N 33°28' W 117°42'  
2017-Sep-28 00:11N 33°28' W 117°42'0 0.0
2017-Sep-28 00:00N 33°28' W 117°42'0 0.0
2017-Sep-27 23:30N 33°28' W 117°42'0 0.7
2017-Sep-27 23:00N 33°27' W 117°41'2 3.1
2017-Sep-27 22:31N 33°27' W 117°43'2 3.7
2017-Sep-27 22:01N 33°25' W 117°43'  
Track history (hours):
 
Tides and Currents Weather Stations Pressure Air Temp Water Temp Dewpoint Dewpoint Depression Visibility Wind Speed Wind Dir Waves Ship Positions

Elisel

Owner: Herman, Alan, Santa Rosa Valley, CA. More information available from US FCC via Universal Licensing System.

Last reported at 2017-Oct-04 18:22 UTC. Time now 2017-Oct-18 18:38 UTC.
Position N 33°28' W 117°42'.
Warning: this ship's position is 14 days out of date.

Length 20 m; draft 2.2 m.

Type: Pleasure craft. MMSI: 368003570.

Date/timePositionNaut miles runAvg speedWind from/ knotsBaromVisibWave heightAir tempDewpointWater temp
2017-Oct-04 18:22N 33°28' W 117°42'0 0.4
2017-Oct-04 18:01N 33°28' W 117°42'3 6.3
2017-Oct-04 17:30N 33°25' W 117°44'3 6.4
2017-Oct-04 17:00N 33°23' W 117°47'4 8.3
2017-Oct-04 16:30N 33°26' W 117°43'2 4.4
2017-Oct-04 16:00N 33°28' W 117°42'0 0.0
2017-Oct-04 15:24N 33°28' W 117°42'  
2017-Sep-28 00:11N 33°28' W 117°42'0 0.0
2017-Sep-28 00:00N 33°28' W 117°42'0 0.0
2017-Sep-27 23:30N 33°28' W 117°42'0 0.7
2017-Sep-27 23:00N 33°27' W 117°41'2 3.1
2017-Sep-27 22:31N 33°27' W 117°43'2 3.7
2017-Sep-27 22:01N 33°25' W 117°43'  

Dump ship's entire track history